createdAt,value
2022-09-29T00:04:06.708Z,5.60
2022-09-29T00:09:08.490Z,5.88
2022-09-29T00:14:10.240Z,5.95
2022-09-29T00:19:11.993Z,5.85
2022-09-29T00:24:13.501Z,5.40
2022-09-29T00:29:15.206Z,6.13
2022-09-29T00:34:16.993Z,5.65
2022-09-29T00:39:18.720Z,5.80
2022-09-29T00:44:20.528Z,5.80
2022-09-29T00:49:22.190Z,6.38
2022-09-29T00:54:23.925Z,5.90
2022-09-29T00:59:25.703Z,5.60
2022-09-29T01:04:27.466Z,6.00
2022-09-29T01:09:29.241Z,6.05
2022-09-29T01:14:30.967Z,6.13
2022-09-29T01:19:32.717Z,6.20
2022-09-29T01:24:34.515Z,6.63
2022-09-29T01:29:36.280Z,6.07
2022-09-29T01:34:37.902Z,6.38
2022-09-29T01:39:39.454Z,6.78
2022-09-29T01:44:40.965Z,7.10
2022-09-29T01:49:42.650Z,7.63
2022-09-29T01:54:44.377Z,7.22
2022-09-29T01:59:46.134Z,7.03
2022-09-29T02:04:47.883Z,8.10
2022-09-29T02:09:49.629Z,8.20
2022-09-29T02:14:51.152Z,7.45
2022-09-29T02:19:52.827Z,7.13
2022-09-29T02:24:54.592Z,8.30
2022-09-29T02:29:56.344Z,8.35
2022-09-29T02:34:58.092Z,8.30
2022-09-29T02:39:59.844Z,7.90
2022-09-29T02:45:01.642Z,8.60
2022-09-29T02:50:03.414Z,7.93
2022-09-29T02:55:05.115Z,7.43
2022-09-29T03:00:06.898Z,7.22
2022-09-29T03:05:08.618Z,7.38
2022-09-29T03:10:10.386Z,6.70
2022-09-29T03:15:12.120Z,6.72
2022-09-29T03:20:13.877Z,6.95
2022-09-29T03:25:15.627Z,6.93
2022-09-29T03:30:17.396Z,8.75
2022-09-29T03:35:19.214Z,8.60
2022-09-29T03:40:20.914Z,7.97
2022-09-29T03:45:22.749Z,7.47
2022-09-29T03:50:24.400Z,7.95
2022-09-29T03:55:25.968Z,8.02
2022-09-29T04:00:27.593Z,10.55
2022-09-29T04:05:29.349Z,9.38
2022-09-29T04:10:31.111Z,8.18
2022-09-29T04:15:32.866Z,9.15
2022-09-29T04:20:34.638Z,9.45
2022-09-29T04:25:36.396Z,10.63
2022-09-29T04:30:38.113Z,9.52
2022-09-29T04:35:39.937Z,10.13
2022-09-29T04:40:41.678Z,9.77
2022-09-29T04:45:43.478Z,10.20
2022-09-29T04:50:45.159Z,10.90
2022-09-29T04:55:46.900Z,16.38
2022-09-29T05:00:48.777Z,11.07
2022-09-29T05:05:50.419Z,13.02
2022-09-29T05:10:52.170Z,11.48
2022-09-29T05:15:53.994Z,12.27
2022-09-29T05:21:16.132Z,13.10
2022-09-29T05:26:17.175Z,11.18
2022-09-29T05:31:18.998Z,11.23
2022-09-29T05:36:20.670Z,12.10
2022-09-29T05:41:22.173Z,12.43
2022-09-29T05:46:23.862Z,15.45
2022-09-29T05:51:25.604Z,13.95
2022-09-29T05:56:27.385Z,14.20
2022-09-29T06:01:28.994Z,16.38
2022-09-29T06:06:30.886Z,63.50
2022-09-29T06:11:32.654Z,34.88
2022-09-29T06:16:34.470Z,31.90
2022-09-29T06:21:36.159Z,43.22
2022-09-29T06:26:37.910Z,38.70
2022-09-29T06:31:39.735Z,34.38
2022-09-29T06:36:41.395Z,23.02
2022-09-29T06:41:43.161Z,13.45
2022-09-29T06:46:44.916Z,12.85
2022-09-29T06:51:46.901Z,11.75
2022-09-29T06:56:48.752Z,9.70
2022-09-29T07:01:51.346Z,9.10
2022-09-29T07:06:53.510Z,8.48
2022-09-29T07:11:55.283Z,7.85
2022-09-29T07:16:57.006Z,7.57
2022-09-29T07:21:58.752Z,7.03
2022-09-29T07:27:00.544Z,7.50
2022-09-29T07:32:02.307Z,6.80
2022-09-29T07:37:04.036Z,6.35
2022-09-29T07:42:09.149Z,6.65
2022-09-29T07:47:10.984Z,6.25
2022-09-29T07:52:12.749Z,5.28
2022-09-29T07:57:14.263Z,5.28
2022-09-29T08:02:16.013Z,5.30
2022-09-29T08:07:17.708Z,4.13
2022-09-29T08:12:19.798Z,3.35
2022-09-29T08:17:21.535Z,3.72
2022-09-29T08:22:23.285Z,3.42
2022-09-29T08:27:25.048Z,3.38
2022-09-29T08:32:26.769Z,2.72
2022-09-29T08:37:31.959Z,2.15
2022-09-29T08:42:47.491Z,2.80
2022-09-29T08:47:50.263Z,2.60
2022-09-29T08:52:52.899Z,2.42
2022-09-29T08:57:54.654Z,2.13
2022-09-29T09:02:57.118Z,2.42
2022-09-29T09:08:01.917Z,2.50
2022-09-29T09:13:05.873Z,2.33
2022-09-29T09:18:07.623Z,2.63
2022-09-29T09:23:09.378Z,2.20
2022-09-29T09:28:11.150Z,2.20
2022-09-29T09:33:22.540Z,1.80
2022-09-29T09:38:27.171Z,2.50
2022-09-29T09:43:28.934Z,1.90
2022-09-29T09:48:31.812Z,2.05
2022-09-29T09:53:33.600Z,2.22
2022-09-29T09:58:35.149Z,2.10
2022-09-29T10:03:36.936Z,1.70
2022-09-29T10:08:38.648Z,1.80
2022-09-29T10:13:40.414Z,1.77
2022-09-29T10:18:42.140Z,1.75
2022-09-29T10:23:43.928Z,1.60
2022-09-29T10:28:45.688Z,1.70
2022-09-29T10:33:47.216Z,1.90
2022-09-29T10:38:48.875Z,1.92
2022-09-29T10:43:50.610Z,1.83
2022-09-29T10:48:52.121Z,1.98
2022-09-29T10:53:53.861Z,1.63
2022-09-29T10:59:02.942Z,1.45
2022-09-29T11:04:06.395Z,1.42
2022-09-29T11:09:08.174Z,1.48
2022-09-29T11:14:09.921Z,1.38
2022-09-29T11:19:11.454Z,1.63
2022-09-29T11:24:13.093Z,1.50
2022-09-29T11:29:14.853Z,1.77
2022-09-29T11:34:16.610Z,1.70
2022-09-29T11:39:18.366Z,1.80
2022-09-29T11:44:22.116Z,1.50
2022-09-29T11:49:23.794Z,1.27
2022-09-29T11:54:25.530Z,1.35
2022-09-29T11:59:27.401Z,1.40
2022-09-29T12:04:29.024Z,1.40
2022-09-29T12:09:30.698Z,1.70
2022-09-29T12:14:33.750Z,1.70
2022-09-29T12:19:37.034Z,1.63
2022-09-29T12:24:38.556Z,1.40
2022-09-29T12:29:42.321Z,1.73
2022-09-29T12:34:43.929Z,1.60
2022-09-29T12:39:45.711Z,1.65
2022-09-29T12:44:47.444Z,1.63
2022-09-29T12:49:49.193Z,1.65
2022-09-29T12:54:50.730Z,1.58
2022-09-29T12:59:52.397Z,1.55
2022-09-29T13:04:53.938Z,1.77
2022-09-29T13:09:55.618Z,1.70
2022-09-29T13:14:57.355Z,1.70
2022-09-29T13:19:59.656Z,1.67
2022-09-29T13:25:01.478Z,1.70
2022-09-29T13:30:03.241Z,1.80
2022-09-29T13:35:04.870Z,1.65
2022-09-29T13:40:10.600Z,1.60
2022-09-29T13:45:13.219Z,1.65
2022-09-29T13:50:14.964Z,1.60
2022-09-29T13:55:16.698Z,1.52
2022-09-29T14:00:18.231Z,1.30
2022-09-29T14:05:19.921Z,1.80
2022-09-29T14:10:21.661Z,1.85
2022-09-29T14:15:23.424Z,1.60
2022-09-29T14:20:24.959Z,1.63
2022-09-29T14:25:26.598Z,1.60
2022-09-29T14:30:28.367Z,1.52
2022-09-29T14:35:30.122Z,1.60
2022-09-29T14:40:31.887Z,1.50
2022-09-29T14:45:33.633Z,1.40
2022-09-29T14:50:35.391Z,1.25
2022-09-29T14:55:36.923Z,1.60
2022-09-29T15:00:38.477Z,1.55
2022-09-29T15:05:40.334Z,1.40
2022-09-29T15:10:42.913Z,1.40
2022-09-29T15:15:44.493Z,1.90
2022-09-29T15:20:46.222Z,2.28
2022-09-29T15:25:47.990Z,1.95
2022-09-29T15:30:49.731Z,1.85
2022-09-29T15:35:51.489Z,2.42
2022-09-29T15:40:53.235Z,2.67
2022-09-29T15:45:54.809Z,2.90
2022-09-29T15:50:56.409Z,3.78
2022-09-29T15:55:58.166Z,4.22
2022-09-29T16:00:59.960Z,4.70
2022-09-29T16:06:01.464Z,4.03
2022-09-29T16:11:03.140Z,6.00
2022-09-29T16:16:04.926Z,5.65
2022-09-29T16:21:06.627Z,6.07
2022-09-29T16:26:08.393Z,5.90
2022-09-29T16:31:10.250Z,6.88
2022-09-29T16:36:11.906Z,8.05
2022-09-29T16:41:13.652Z,6.03
2022-09-29T16:46:15.477Z,6.50
2022-09-29T16:56:38.970Z,6.10
2022-09-29T17:01:40.835Z,6.10
2022-09-29T17:06:42.480Z,5.72
2022-09-29T17:11:44.039Z,4.32
2022-09-29T17:16:45.715Z,7.43
2022-09-29T17:21:47.492Z,10.68
2022-09-29T17:26:49.043Z,8.63
2022-09-29T17:31:50.698Z,10.52
2022-09-29T17:36:52.422Z,7.13
2022-09-29T17:41:54.185Z,6.13
2022-09-29T17:47:10.792Z,6.25
2022-09-29T17:52:17.745Z,6.93
2022-09-29T17:57:19.470Z,9.20
2022-09-29T18:02:21.295Z,8.00
2022-09-29T18:07:23.008Z,6.50
2022-09-29T18:12:24.774Z,7.03
2022-09-29T18:17:26.543Z,6.85
2022-09-29T18:22:28.306Z,10.02
2022-09-29T18:27:30.046Z,8.35
2022-09-29T18:32:31.675Z,8.65
2022-09-29T18:37:33.311Z,9.13
2022-09-29T18:42:34.959Z,11.20
2022-09-29T18:47:36.746Z,14.07
2022-09-29T18:52:38.513Z,11.70
2022-09-29T18:57:40.283Z,12.35
2022-09-29T19:02:42.132Z,11.13
2022-09-29T19:07:44.060Z,9.43
2022-09-29T19:12:45.789Z,9.00
2022-09-29T19:17:47.514Z,11.40
2022-09-29T19:22:49.064Z,11.15
2022-09-29T19:27:50.719Z,11.75
2022-09-29T19:32:52.246Z,14.70
2022-09-29T19:37:53.793Z,14.13
2022-09-29T19:42:55.431Z,14.38
2022-09-29T19:47:57.190Z,16.42
2022-09-29T19:52:58.894Z,15.95
2022-09-29T19:58:02.701Z,14.68
2022-09-29T20:03:04.317Z,16.13
2022-09-29T20:08:05.886Z,17.98
2022-09-29T20:13:07.436Z,14.82
2022-09-29T20:18:08.955Z,15.82
2022-09-29T20:23:10.633Z,15.45
2022-09-29T20:28:15.401Z,16.85
2022-09-29T20:33:17.600Z,18.02
2022-09-29T20:38:19.339Z,18.48
2022-09-29T20:43:20.887Z,17.35
2022-09-29T20:48:22.565Z,18.85
2022-09-29T20:53:24.286Z,18.08
2022-09-29T20:58:26.055Z,20.55
2022-09-29T21:03:27.571Z,22.20
2022-09-29T21:08:29.236Z,20.15
2022-09-29T21:13:30.988Z,20.38
2022-09-29T21:18:32.735Z,20.08
2022-09-29T21:23:34.530Z,19.95
2022-09-29T21:28:36.278Z,19.33
2022-09-29T21:33:38.006Z,20.67
2022-09-29T21:38:39.760Z,21.13
2022-09-29T21:43:41.526Z,19.92
2022-09-29T21:48:43.271Z,20.85
2022-09-29T21:53:45.035Z,21.02
2022-09-29T21:58:46.803Z,22.80
2022-09-29T22:03:48.446Z,21.45
2022-09-29T22:08:49.997Z,19.30
2022-09-29T22:13:51.742Z,22.58
2022-09-29T22:19:18.280Z,29.38
2022-09-29T22:24:14.756Z,32.42
2022-09-29T22:29:16.489Z,34.28
2022-09-29T22:34:18.172Z,24.60
2022-09-29T22:39:19.995Z,25.38
2022-09-29T22:44:21.575Z,23.02
2022-09-29T22:49:23.251Z,21.75
2022-09-29T22:54:24.860Z,21.80
2022-09-29T22:59:26.621Z,20.77
2022-09-29T23:04:28.445Z,22.65
2022-09-29T23:09:30.181Z,28.60
2022-09-29T23:14:31.790Z,28.42
2022-09-29T23:19:33.331Z,26.15
2022-09-29T23:24:35.076Z,27.20
2022-09-29T23:29:36.851Z,27.35
2022-09-29T23:34:38.384Z,24.88
2022-09-29T23:39:39.987Z,29.67
2022-09-29T23:44:41.509Z,33.05
2022-09-29T23:49:43.218Z,25.48
2022-09-29T23:54:44.964Z,27.73
2022-09-29T23:59:46.735Z,24.83
